sensor_id;sensor_type;location;lat;lon;timestamp;P1;durP1;ratioP1;P2;durP2;ratioP2
22334;SDS011;11335;43.848;25.958;2023-02-28T00:00:27;22.60;;;14.52;;
22334;SDS011;11335;43.848;25.958;2023-02-28T00:03:13;20.63;;;13.88;;
22334;SDS011;11335;43.848;25.958;2023-02-28T00:05:59;21.95;;;13.65;;
22334;SDS011;11335;43.848;25.958;2023-02-28T00:08:44;22.17;;;14.90;;
22334;SDS011;11335;43.848;25.958;2023-02-28T00:11:30;22.75;;;14.50;;
22334;SDS011;11335;43.848;25.958;2023-02-28T00:14:15;22.15;;;14.25;;
22334;SDS011;11335;43.848;25.958;2023-02-28T00:17:01;20.55;;;13.25;;
22334;SDS011;11335;43.848;25.958;2023-02-28T00:19:50;22.30;;;13.90;;
22334;SDS011;11335;43.848;25.958;2023-02-28T00:22:36;21.73;;;13.90;;
22334;SDS011;11335;43.848;25.958;2023-02-28T00:25:23;24.20;;;14.43;;
22334;SDS011;11335;43.848;25.958;2023-02-28T00:28:09;20.25;;;13.77;;
22334;SDS011;11335;43.848;25.958;2023-02-28T00:30:54;20.88;;;14.05;;
22334;SDS011;11335;43.848;25.958;2023-02-28T00:33:40;21.70;;;13.93;;
22334;SDS011;11335;43.848;25.958;2023-02-28T00:36:26;22.80;;;14.32;;
22334;SDS011;11335;43.848;25.958;2023-02-28T00:39:11;19.42;;;12.88;;
22334;SDS011;11335;43.848;25.958;2023-02-28T00:41:57;20.52;;;12.88;;
22334;SDS011;11335;43.848;25.958;2023-02-28T00:44:43;19.42;;;12.63;;
22334;SDS011;11335;43.848;25.958;2023-02-28T00:47:28;19.45;;;13.00;;
22334;SDS011;11335;43.848;25.958;2023-02-28T00:50:14;18.17;;;11.93;;
22334;SDS011;11335;43.848;25.958;2023-02-28T00:52:59;20.92;;;13.00;;
22334;SDS011;11335;43.848;25.958;2023-02-28T00:55:45;19.67;;;12.73;;
22334;SDS011;11335;43.848;25.958;2023-02-28T00:58:30;20.20;;;12.57;;
22334;SDS011;11335;43.848;25.958;2023-02-28T01:01:16;18.25;;;12.05;;
22334;SDS011;11335;43.848;25.958;2023-02-28T01:04:02;20.90;;;13.43;;
22334;SDS011;11335;43.848;25.958;2023-02-28T01:06:48;19.00;;;13.00;;
22334;SDS011;11335;43.848;25.958;2023-02-28T01:09:33;19.65;;;13.10;;
22334;SDS011;11335;43.848;25.958;2023-02-28T01:12:19;23.17;;;13.30;;
22334;SDS011;11335;43.848;25.958;2023-02-28T01:15:05;18.08;;;12.20;;
22334;SDS011;11335;43.848;25.958;2023-02-28T01:17:51;18.98;;;12.52;;
22334;SDS011;11335;43.848;25.958;2023-02-28T01:20:37;22.00;;;13.18;;
22334;SDS011;11335;43.848;25.958;2023-02-28T01:23:22;21.48;;;12.75;;
22334;SDS011;11335;43.848;25.958;2023-02-28T01:26:13;22.60;;;13.93;;
22334;SDS011;11335;43.848;25.958;2023-02-28T01:28:59;21.00;;;13.85;;
22334;SDS011;11335;43.848;25.958;2023-02-28T01:31:44;22.67;;;13.48;;
22334;SDS011;11335;43.848;25.958;2023-02-28T01:34:30;20.02;;;13.32;;
22334;SDS011;11335;43.848;25.958;2023-02-28T01:37:16;20.13;;;13.68;;
22334;SDS011;11335;43.848;25.958;2023-02-28T01:40:01;19.52;;;12.80;;
22334;SDS011;11335;43.848;25.958;2023-02-28T01:42:47;25.65;;;11.70;;
22334;SDS011;11335;43.848;25.958;2023-02-28T01:45:32;18.13;;;11.60;;
22334;SDS011;11335;43.848;25.958;2023-02-28T01:48:21;17.77;;;12.05;;
22334;SDS011;11335;43.848;25.958;2023-02-28T01:51:09;21.33;;;12.65;;
22334;SDS011;11335;43.848;25.958;2023-02-28T01:53:57;20.42;;;12.15;;
22334;SDS011;11335;43.848;25.958;2023-02-28T01:56:45;18.45;;;12.70;;
22334;SDS011;11335;43.848;25.958;2023-02-28T01:59:35;18.58;;;12.25;;
22334;SDS011;11335;43.848;25.958;2023-02-28T02:02:22;19.75;;;13.00;;
22334;SDS011;11335;43.848;25.958;2023-02-28T02:05:10;20.98;;;13.45;;
22334;SDS011;11335;43.848;25.958;2023-02-28T02:07:56;20.63;;;13.02;;
22334;SDS011;11335;43.848;25.958;2023-02-28T02:10:44;20.45;;;12.88;;
22334;SDS011;11335;43.848;25.958;2023-02-28T02:36:51;21.50;;;12.70;;
22334;SDS011;11335;43.848;25.958;2023-02-28T02:42:39;23.02;;;13.48;;
22334;SDS011;11335;43.848;25.958;2023-02-28T02:48:13;22.58;;;13.18;;
22334;SDS011;11335;43.848;25.958;2023-02-28T02:51:01;21.95;;;13.45;;
22334;SDS011;11335;43.848;25.958;2023-02-28T02:54:00;23.38;;;13.75;;
22334;SDS011;11335;43.848;25.958;2023-02-28T02:56:48;21.92;;;13.68;;
22334;SDS011;11335;43.848;25.958;2023-02-28T02:59:35;24.38;;;13.57;;
22334;SDS011;11335;43.848;25.958;2023-02-28T03:02:21;22.70;;;14.23;;
22334;SDS011;11335;43.848;25.958;2023-02-28T03:05:09;22.70;;;14.15;;
22334;SDS011;11335;43.848;25.958;2023-02-28T03:07:58;27.23;;;14.00;;
22334;SDS011;11335;43.848;25.958;2023-02-28T03:10:45;27.70;;;15.57;;
22334;SDS011;11335;43.848;25.958;2023-02-28T03:16:28;26.63;;;15.80;;
22334;SDS011;11335;43.848;25.958;2023-02-28T03:30:51;26.13;;;15.55;;
22334;SDS011;11335;43.848;25.958;2023-02-28T03:33:41;27.02;;;15.50;;
22334;SDS011;11335;43.848;25.958;2023-02-28T03:36:29;27.50;;;15.48;;
22334;SDS011;11335;43.848;25.958;2023-02-28T03:39:16;27.98;;;16.40;;
22334;SDS011;11335;43.848;25.958;2023-02-28T03:42:07;28.23;;;16.60;;
22334;SDS011;11335;43.848;25.958;2023-02-28T03:44:55;28.70;;;16.27;;
22334;SDS011;11335;43.848;25.958;2023-02-28T03:47:52;27.40;;;16.67;;
22334;SDS011;11335;43.848;25.958;2023-02-28T03:53:36;27.65;;;16.55;;
22334;SDS011;11335;43.848;25.958;2023-02-28T03:56:37;28.92;;;17.35;;
22334;SDS011;11335;43.848;25.958;2023-02-28T04:02:28;28.92;;;17.13;;
22334;SDS011;11335;43.848;25.958;2023-02-28T04:05:13;28.70;;;16.63;;
22334;SDS011;11335;43.848;25.958;2023-02-28T04:08:06;30.27;;;17.52;;
22334;SDS011;11335;43.848;25.958;2023-02-28T04:11:16;29.30;;;17.10;;
22334;SDS011;11335;43.848;25.958;2023-02-28T04:13:57;29.88;;;17.70;;
22334;SDS011;11335;43.848;25.958;2023-02-28T04:16:43;30.85;;;17.63;;
22334;SDS011;11335;43.848;25.958;2023-02-28T04:19:29;32.30;;;18.30;;
22334;SDS011;11335;43.848;25.958;2023-02-28T04:22:14;30.23;;;17.08;;
22334;SDS011;11335;43.848;25.958;2023-02-28T04:25:00;31.40;;;18.63;;
22334;SDS011;11335;43.848;25.958;2023-02-28T04:27:45;35.97;;;19.55;;
22334;SDS011;11335;43.848;25.958;2023-02-28T04:30:31;35.30;;;19.13;;
22334;SDS011;11335;43.848;25.958;2023-02-28T04:33:17;31.80;;;18.67;;
22334;SDS011;11335;43.848;25.958;2023-02-28T04:36:07;35.42;;;19.85;;
22334;SDS011;11335;43.848;25.958;2023-02-28T04:38:53;35.88;;;19.75;;
22334;SDS011;11335;43.848;25.958;2023-02-28T04:41:39;34.25;;;18.58;;
22334;SDS011;11335;43.848;25.958;2023-02-28T04:44:24;35.97;;;19.67;;
22334;SDS011;11335;43.848;25.958;2023-02-28T04:47:10;34.83;;;19.38;;
22334;SDS011;11335;43.848;25.958;2023-02-28T04:49:56;33.80;;;19.23;;
22334;SDS011;11335;43.848;25.958;2023-02-28T04:52:41;36.55;;;20.00;;
22334;SDS011;11335;43.848;25.958;2023-02-28T04:55:27;35.88;;;19.42;;
22334;SDS011;11335;43.848;25.958;2023-02-28T04:58:13;38.53;;;21.08;;
22334;SDS011;11335;43.848;25.958;2023-02-28T05:01:03;37.92;;;21.35;;
22334;SDS011;11335;43.848;25.958;2023-02-28T05:03:49;40.35;;;21.80;;
22334;SDS011;11335;43.848;25.958;2023-02-28T05:06:35;41.05;;;21.85;;
22334;SDS011;11335;43.848;25.958;2023-02-28T05:09:20;39.65;;;21.70;;
22334;SDS011;11335;43.848;25.958;2023-02-28T05:12:06;37.92;;;21.23;;
22334;SDS011;11335;43.848;25.958;2023-02-28T05:14:52;40.85;;;21.48;;
22334;SDS011;11335;43.848;25.958;2023-02-28T05:17:37;39.70;;;22.00;;
22334;SDS011;11335;43.848;25.958;2023-02-28T05:20:23;37.85;;;21.17;;
22334;SDS011;11335;43.848;25.958;2023-02-28T05:23:10;38.83;;;21.40;;
22334;SDS011;11335;43.848;25.958;2023-02-28T05:25:56;40.22;;;21.20;;
22334;SDS011;11335;43.848;25.958;2023-02-28T05:28:42;40.08;;;20.58;;
22334;SDS011;11335;43.848;25.958;2023-02-28T05:31:28;40.63;;;21.80;;
22334;SDS011;11335;43.848;25.958;2023-02-28T05:34:13;35.33;;;20.45;;
22334;SDS011;11335;43.848;25.958;2023-02-28T05:37:00;40.17;;;21.65;;
22334;SDS011;11335;43.848;25.958;2023-02-28T05:39:46;36.42;;;20.65;;
22334;SDS011;11335;43.848;25.958;2023-02-28T05:42:32;38.88;;;21.05;;
22334;SDS011;11335;43.848;25.958;2023-02-28T05:45:17;37.17;;;19.67;;
22334;SDS011;11335;43.848;25.958;2023-02-28T05:48:03;35.17;;;19.58;;
22334;SDS011;11335;43.848;25.958;2023-02-28T05:50:49;39.75;;;21.52;;
22334;SDS011;11335;43.848;25.958;2023-02-28T05:53:34;40.78;;;21.85;;
22334;SDS011;11335;43.848;25.958;2023-02-28T05:56:20;41.33;;;22.10;;
22334;SDS011;11335;43.848;25.958;2023-02-28T05:59:06;37.55;;;20.38;;
22334;SDS011;11335;43.848;25.958;2023-02-28T06:01:52;36.50;;;20.52;;
22334;SDS011;11335;43.848;25.958;2023-02-28T06:04:38;33.35;;;19.20;;
22334;SDS011;11335;43.848;25.958;2023-02-28T06:07:23;35.00;;;19.35;;
22334;SDS011;11335;43.848;25.958;2023-02-28T06:10:10;35.78;;;19.33;;
22334;SDS011;11335;43.848;25.958;2023-02-28T06:12:56;33.67;;;18.63;;
22334;SDS011;11335;43.848;25.958;2023-02-28T06:15:44;33.55;;;18.50;;
22334;SDS011;11335;43.848;25.958;2023-02-28T06:18:30;35.40;;;19.33;;
22334;SDS011;11335;43.848;25.958;2023-02-28T06:21:15;34.33;;;19.33;;
22334;SDS011;11335;43.848;25.958;2023-02-28T06:24:01;35.28;;;19.50;;
22334;SDS011;11335;43.848;25.958;2023-02-28T06:26:47;35.00;;;19.58;;
22334;SDS011;11335;43.848;25.958;2023-02-28T06:29:33;36.75;;;19.35;;
22334;SDS011;11335;43.848;25.958;2023-02-28T06:32:19;35.33;;;18.33;;
22334;SDS011;11335;43.848;25.958;2023-02-28T06:35:05;35.72;;;19.13;;
22334;SDS011;11335;43.848;25.958;2023-02-28T06:37:50;38.55;;;20.00;;
22334;SDS011;11335;43.848;25.958;2023-02-28T06:40:36;37.40;;;18.85;;
22334;SDS011;11335;43.848;25.958;2023-02-28T06:43:22;38.13;;;19.98;;
22334;SDS011;11335;43.848;25.958;2023-02-28T06:46:08;37.22;;;19.90;;
22334;SDS011;11335;43.848;25.958;2023-02-28T06:48:55;38.55;;;19.63;;
22334;SDS011;11335;43.848;25.958;2023-02-28T06:51:41;42.03;;;21.25;;
22334;SDS011;11335;43.848;25.958;2023-02-28T06:54:27;41.13;;;22.60;;
22334;SDS011;11335;43.848;25.958;2023-02-28T06:57:12;42.85;;;23.25;;
22334;SDS011;11335;43.848;25.958;2023-02-28T07:00:03;44.70;;;25.25;;
22334;SDS011;11335;43.848;25.958;2023-02-28T07:02:50;46.40;;;24.42;;
22334;SDS011;11335;43.848;25.958;2023-02-28T07:05:36;44.67;;;24.38;;
22334;SDS011;11335;43.848;25.958;2023-02-28T07:08:23;43.38;;;23.20;;
22334;SDS011;11335;43.848;25.958;2023-02-28T07:11:08;38.10;;;22.17;;
22334;SDS011;11335;43.848;25.958;2023-02-28T07:13:54;39.42;;;21.45;;
22334;SDS011;11335;43.848;25.958;2023-02-28T07:16:40;37.72;;;21.20;;
22334;SDS011;11335;43.848;25.958;2023-02-28T07:19:25;43.28;;;21.40;;
22334;SDS011;11335;43.848;25.958;2023-02-28T07:22:11;37.17;;;20.38;;
22334;SDS011;11335;43.848;25.958;2023-02-28T07:24:57;35.33;;;20.60;;
22334;SDS011;11335;43.848;25.958;2023-02-28T07:27:43;41.13;;;20.65;;
22334;SDS011;11335;43.848;25.958;2023-02-28T07:30:28;45.97;;;24.83;;
22334;SDS011;11335;43.848;25.958;2023-02-28T07:33:14;37.72;;;20.50;;
22334;SDS011;11335;43.848;25.958;2023-02-28T07:36:00;37.50;;;20.88;;
22334;SDS011;11335;43.848;25.958;2023-02-28T07:38:47;37.65;;;20.85;;
22334;SDS011;11335;43.848;25.958;2023-02-28T07:41:35;40.40;;;20.45;;
22334;SDS011;11335;43.848;25.958;2023-02-28T07:44:24;36.53;;;20.25;;
22334;SDS011;11335;43.848;25.958;2023-02-28T07:47:10;40.28;;;21.38;;
22334;SDS011;11335;43.848;25.958;2023-02-28T07:49:55;40.08;;;20.55;;
22334;SDS011;11335;43.848;25.958;2023-02-28T07:52:41;38.05;;;20.70;;
22334;SDS011;11335;43.848;25.958;2023-02-28T07:55:27;39.40;;;21.55;;
22334;SDS011;11335;43.848;25.958;2023-02-28T07:58:12;37.35;;;21.45;;
22334;SDS011;11335;43.848;25.958;2023-02-28T08:01:04;39.25;;;21.48;;
22334;SDS011;11335;43.848;25.958;2023-02-28T08:03:50;37.70;;;21.52;;
22334;SDS011;11335;43.848;25.958;2023-02-28T08:06:36;38.97;;;21.55;;
22334;SDS011;11335;43.848;25.958;2023-02-28T08:09:21;35.72;;;20.38;;
22334;SDS011;11335;43.848;25.958;2023-02-28T08:12:07;35.85;;;20.63;;
22334;SDS011;11335;43.848;25.958;2023-02-28T08:14:53;41.75;;;22.35;;
22334;SDS011;11335;43.848;25.958;2023-02-28T08:17:39;39.13;;;21.13;;
22334;SDS011;11335;43.848;25.958;2023-02-28T08:20:25;35.78;;;19.73;;
22334;SDS011;11335;43.848;25.958;2023-02-28T08:23:10;39.10;;;21.25;;
22334;SDS011;11335;43.848;25.958;2023-02-28T08:25:56;36.72;;;20.60;;
22334;SDS011;11335;43.848;25.958;2023-02-28T08:28:42;37.72;;;20.92;;
22334;SDS011;11335;43.848;25.958;2023-02-28T08:31:27;36.75;;;19.77;;
22334;SDS011;11335;43.848;25.958;2023-02-28T08:34:14;37.72;;;20.58;;
22334;SDS011;11335;43.848;25.958;2023-02-28T08:36:59;36.80;;;19.98;;
22334;SDS011;11335;43.848;25.958;2023-02-28T08:39:45;37.75;;;20.85;;
22334;SDS011;11335;43.848;25.958;2023-02-28T08:42:31;34.78;;;20.02;;
22334;SDS011;11335;43.848;25.958;2023-02-28T08:45:17;37.72;;;20.65;;
22334;SDS011;11335;43.848;25.958;2023-02-28T08:48:03;37.22;;;20.30;;
22334;SDS011;11335;43.848;25.958;2023-02-28T08:51:07;39.50;;;20.55;;
22334;SDS011;11335;43.848;25.958;2023-02-28T08:53:55;41.40;;;21.50;;
22334;SDS011;11335;43.848;25.958;2023-02-28T08:56:41;36.92;;;20.15;;
22334;SDS011;11335;43.848;25.958;2023-02-28T08:59:26;35.90;;;20.10;;
22334;SDS011;11335;43.848;25.958;2023-02-28T09:02:13;33.58;;;19.42;;
22334;SDS011;11335;43.848;25.958;2023-02-28T09:04:59;38.53;;;20.30;;
22334;SDS011;11335;43.848;25.958;2023-02-28T09:07:44;37.30;;;20.35;;
22334;SDS011;11335;43.848;25.958;2023-02-28T09:10:30;36.80;;;21.33;;
22334;SDS011;11335;43.848;25.958;2023-02-28T09:13:15;37.15;;;19.65;;
22334;SDS011;11335;43.848;25.958;2023-02-28T09:16:04;40.20;;;22.15;;
22334;SDS011;11335;43.848;25.958;2023-02-28T09:18:50;37.35;;;19.80;;
22334;SDS011;11335;43.848;25.958;2023-02-28T09:21:35;35.10;;;18.83;;
22334;SDS011;11335;43.848;25.958;2023-02-28T09:24:21;33.90;;;19.23;;
22334;SDS011;11335;43.848;25.958;2023-02-28T09:27:07;33.10;;;19.52;;
22334;SDS011;11335;43.848;25.958;2023-02-28T09:29:52;33.60;;;19.45;;
22334;SDS011;11335;43.848;25.958;2023-02-28T09:32:38;37.22;;;20.55;;
22334;SDS011;11335;43.848;25.958;2023-02-28T09:35:23;33.40;;;19.05;;
22334;SDS011;11335;43.848;25.958;2023-02-28T09:38:09;33.65;;;19.80;;
22334;SDS011;11335;43.848;25.958;2023-02-28T09:40:56;32.92;;;19.48;;
22334;SDS011;11335;43.848;25.958;2023-02-28T09:43:46;35.17;;;20.80;;
22334;SDS011;11335;43.848;25.958;2023-02-28T09:46:33;35.20;;;21.63;;
22334;SDS011;11335;43.848;25.958;2023-02-28T09:49:21;32.85;;;19.80;;
22334;SDS011;11335;43.848;25.958;2023-02-28T09:52:12;32.72;;;19.73;;
22334;SDS011;11335;43.848;25.958;2023-02-28T09:55:01;38.83;;;20.88;;
22334;SDS011;11335;43.848;25.958;2023-02-28T09:57:47;35.00;;;20.40;;
22334;SDS011;11335;43.848;25.958;2023-02-28T10:00:33;38.00;;;20.40;;
22334;SDS011;11335;43.848;25.958;2023-02-28T10:03:40;35.05;;;19.88;;
22334;SDS011;11335;43.848;25.958;2023-02-28T10:06:28;36.25;;;20.27;;
22334;SDS011;11335;43.848;25.958;2023-02-28T10:09:25;35.15;;;19.85;;
22334;SDS011;11335;43.848;25.958;2023-02-28T10:12:11;33.72;;;19.02;;
22334;SDS011;11335;43.848;25.958;2023-02-28T10:14:59;36.13;;;20.27;;
22334;SDS011;11335;43.848;25.958;2023-02-28T10:17:45;35.20;;;20.33;;
22334;SDS011;11335;43.848;25.958;2023-02-28T10:20:33;37.00;;;20.55;;
22334;SDS011;11335;43.848;25.958;2023-02-28T10:26:14;36.17;;;20.10;;
22334;SDS011;11335;43.848;25.958;2023-02-28T10:29:03;33.40;;;19.65;;
22334;SDS011;11335;43.848;25.958;2023-02-28T10:31:49;36.70;;;20.67;;
22334;SDS011;11335;43.848;25.958;2023-02-28T10:34:35;40.22;;;21.85;;
22334;SDS011;11335;43.848;25.958;2023-02-28T10:37:20;37.40;;;21.27;;
22334;SDS011;11335;43.848;25.958;2023-02-28T10:40:07;35.92;;;20.85;;
22334;SDS011;11335;43.848;25.958;2023-02-28T10:49:03;36.13;;;21.00;;
22334;SDS011;11335;43.848;25.958;2023-02-28T10:51:57;41.67;;;22.52;;
22334;SDS011;11335;43.848;25.958;2023-02-28T10:54:43;44.22;;;24.88;;
22334;SDS011;11335;43.848;25.958;2023-02-28T10:57:28;57.00;;;31.63;;
22334;SDS011;11335;43.848;25.958;2023-02-28T11:00:19;51.88;;;30.38;;
22334;SDS011;11335;43.848;25.958;2023-02-28T11:03:15;56.25;;;35.15;;
22334;SDS011;11335;43.848;25.958;2023-02-28T11:06:11;37.95;;;21.90;;
22334;SDS011;11335;43.848;25.958;2023-02-28T11:09:05;36.10;;;21.20;;
22334;SDS011;11335;43.848;25.958;2023-02-28T11:11:58;40.22;;;21.73;;
22334;SDS011;11335;43.848;25.958;2023-02-28T11:14:51;41.30;;;21.63;;
22334;SDS011;11335;43.848;25.958;2023-02-28T11:17:37;43.45;;;24.20;;
22334;SDS011;11335;43.848;25.958;2023-02-28T11:20:24;37.50;;;20.80;;
22334;SDS011;11335;43.848;25.958;2023-02-28T11:23:11;38.83;;;20.90;;
22334;SDS011;11335;43.848;25.958;2023-02-28T11:25:59;43.25;;;22.40;;
22334;SDS011;11335;43.848;25.958;2023-02-28T11:28:46;41.28;;;21.40;;
22334;SDS011;11335;43.848;25.958;2023-02-28T11:31:31;41.03;;;21.70;;
22334;SDS011;11335;43.848;25.958;2023-02-28T11:34:22;41.72;;;23.10;;
22334;SDS011;11335;43.848;25.958;2023-02-28T11:37:15;49.80;;;23.05;;
22334;SDS011;11335;43.848;25.958;2023-02-28T11:40:01;40.75;;;22.52;;
22334;SDS011;11335;43.848;25.958;2023-02-28T11:43:04;40.85;;;22.35;;
22334;SDS011;11335;43.848;25.958;2023-02-28T11:46:53;39.40;;;21.73;;
22334;SDS011;11335;43.848;25.958;2023-02-28T11:49:13;49.08;;;27.33;;
22334;SDS011;11335;43.848;25.958;2023-02-28T11:52:01;47.40;;;24.95;;
22334;SDS011;11335;43.848;25.958;2023-02-28T11:57:52;42.10;;;23.30;;
22334;SDS011;11335;43.848;25.958;2023-02-28T12:06:33;47.83;;;24.42;;
22334;SDS011;11335;43.848;25.958;2023-02-28T12:15:54;46.70;;;23.92;;
22334;SDS011;11335;43.848;25.958;2023-02-28T12:18:21;41.35;;;23.10;;
22334;SDS011;11335;43.848;25.958;2023-02-28T12:26:52;47.05;;;24.65;;
22334;SDS011;11335;43.848;25.958;2023-02-28T12:29:47;56.72;;;28.10;;
22334;SDS011;11335;43.848;25.958;2023-02-28T12:32:38;45.83;;;25.30;;
22334;SDS011;11335;43.848;25.958;2023-02-28T12:35:26;48.85;;;25.92;;
22334;SDS011;11335;43.848;25.958;2023-02-28T12:38:14;42.88;;;24.33;;
22334;SDS011;11335;43.848;25.958;2023-02-28T12:41:04;46.20;;;24.77;;
22334;SDS011;11335;43.848;25.958;2023-02-28T12:43:55;44.25;;;23.70;;
22334;SDS011;11335;43.848;25.958;2023-02-28T12:46:44;45.17;;;23.98;;
22334;SDS011;11335;43.848;25.958;2023-02-28T12:49:42;46.33;;;25.00;;
22334;SDS011;11335;43.848;25.958;2023-02-28T12:55:41;50.15;;;24.48;;
22334;SDS011;11335;43.848;25.958;2023-02-28T12:58:31;45.00;;;23.48;;
22334;SDS011;11335;43.848;25.958;2023-02-28T13:09:54;45.95;;;25.73;;
22334;SDS011;11335;43.848;25.958;2023-02-28T13:12:48;43.00;;;24.67;;
22334;SDS011;11335;43.848;25.958;2023-02-28T13:15:34;43.78;;;23.85;;
22334;SDS011;11335;43.848;25.958;2023-02-28T13:18:46;43.83;;;24.45;;
22334;SDS011;11335;43.848;25.958;2023-02-28T13:21:32;40.28;;;23.05;;
22334;SDS011;11335;43.848;25.958;2023-02-28T13:24:36;36.83;;;22.58;;
22334;SDS011;11335;43.848;25.958;2023-02-28T13:39:03;37.53;;;21.63;;
22334;SDS011;11335;43.848;25.958;2023-02-28T13:47:58;37.13;;;20.40;;
22334;SDS011;11335;43.848;25.958;2023-02-28T13:50:44;36.17;;;21.08;;
22334;SDS011;11335;43.848;25.958;2023-02-28T13:56:21;39.13;;;22.45;;
22334;SDS011;11335;43.848;25.958;2023-02-28T14:02:40;35.30;;;19.42;;
22334;SDS011;11335;43.848;25.958;2023-02-28T14:05:30;37.08;;;20.23;;
22334;SDS011;11335;43.848;25.958;2023-02-28T14:08:18;36.65;;;19.83;;
22334;SDS011;11335;43.848;25.958;2023-02-28T14:11:08;38.33;;;20.38;;
22334;SDS011;11335;43.848;25.958;2023-02-28T14:13:55;33.80;;;19.85;;
22334;SDS011;11335;43.848;25.958;2023-02-28T14:16:41;38.13;;;21.75;;
22334;SDS011;11335;43.848;25.958;2023-02-28T14:19:30;34.05;;;18.42;;
22334;SDS011;11335;43.848;25.958;2023-02-28T14:36:44;34.33;;;19.98;;
22334;SDS011;11335;43.848;25.958;2023-02-28T14:39:30;33.40;;;18.60;;
22334;SDS011;11335;43.848;25.958;2023-02-28T14:42:35;34.35;;;19.45;;
22334;SDS011;11335;43.848;25.958;2023-02-28T14:45:23;45.90;;;27.50;;
22334;SDS011;11335;43.848;25.958;2023-02-28T14:48:09;51.60;;;34.17;;
22334;SDS011;11335;43.848;25.958;2023-02-28T14:50:56;37.03;;;19.88;;
22334;SDS011;11335;43.848;25.958;2023-02-28T14:53:42;32.33;;;18.63;;
22334;SDS011;11335;43.848;25.958;2023-02-28T14:56:35;36.25;;;21.75;;
22334;SDS011;11335;43.848;25.958;2023-02-28T15:02:22;43.88;;;26.75;;
22334;SDS011;11335;43.848;25.958;2023-02-28T15:13:40;37.55;;;20.67;;
22334;SDS011;11335;43.848;25.958;2023-02-28T15:16:31;31.88;;;19.38;;
22334;SDS011;11335;43.848;25.958;2023-02-28T15:19:19;32.72;;;19.90;;
22334;SDS011;11335;43.848;25.958;2023-02-28T15:22:12;40.22;;;22.77;;
22334;SDS011;11335;43.848;25.958;2023-02-28T15:24:59;35.42;;;18.50;;
22334;SDS011;11335;43.848;25.958;2023-02-28T15:27:46;32.35;;;19.00;;
22334;SDS011;11335;43.848;25.958;2023-02-28T15:30:33;31.35;;;18.40;;
22334;SDS011;11335;43.848;25.958;2023-02-28T15:33:20;33.70;;;19.20;;
22334;SDS011;11335;43.848;25.958;2023-02-28T15:36:16;33.20;;;19.00;;
22334;SDS011;11335;43.848;25.958;2023-02-28T15:39:22;32.58;;;18.38;;
22334;SDS011;11335;43.848;25.958;2023-02-28T15:42:12;33.80;;;19.35;;
22334;SDS011;11335;43.848;25.958;2023-02-28T15:44:58;34.80;;;19.13;;
22334;SDS011;11335;43.848;25.958;2023-02-28T15:47:45;33.75;;;19.77;;
22334;SDS011;11335;43.848;25.958;2023-02-28T15:50:31;38.53;;;21.48;;
22334;SDS011;11335;43.848;25.958;2023-02-28T15:53:24;37.63;;;22.20;;
22334;SDS011;11335;43.848;25.958;2023-02-28T15:59:03;37.92;;;22.50;;
22334;SDS011;11335;43.848;25.958;2023-02-28T16:05:13;41.80;;;23.55;;
22334;SDS011;11335;43.848;25.958;2023-02-28T16:08:15;41.17;;;23.80;;
22334;SDS011;11335;43.848;25.958;2023-02-28T16:11:01;79.43;;;39.50;;
22334;SDS011;11335;43.848;25.958;2023-02-28T16:13:46;45.78;;;24.80;;
22334;SDS011;11335;43.848;25.958;2023-02-28T16:16:32;44.78;;;24.50;;
22334;SDS011;11335;43.848;25.958;2023-02-28T16:19:18;42.72;;;24.25;;
22334;SDS011;11335;43.848;25.958;2023-02-28T16:22:04;48.47;;;26.40;;
22334;SDS011;11335;43.848;25.958;2023-02-28T16:24:50;44.47;;;26.40;;
22334;SDS011;11335;43.848;25.958;2023-02-28T16:27:35;45.00;;;24.95;;
22334;SDS011;11335;43.848;25.958;2023-02-28T16:30:23;46.00;;;26.55;;
22334;SDS011;11335;43.848;25.958;2023-02-28T16:33:09;44.42;;;25.50;;
22334;SDS011;11335;43.848;25.958;2023-02-28T16:35:55;45.47;;;25.88;;
22334;SDS011;11335;43.848;25.958;2023-02-28T16:38:40;45.10;;;25.55;;
22334;SDS011;11335;43.848;25.958;2023-02-28T16:41:27;45.30;;;27.25;;
22334;SDS011;11335;43.848;25.958;2023-02-28T16:47:11;48.95;;;26.83;;
22334;SDS011;11335;43.848;25.958;2023-02-28T16:49:57;48.58;;;25.95;;
22334;SDS011;11335;43.848;25.958;2023-02-28T16:52:42;78.20;;;39.47;;
22334;SDS011;11335;43.848;25.958;2023-02-28T16:55:28;47.05;;;26.77;;
22334;SDS011;11335;43.848;25.958;2023-02-28T16:58:14;45.63;;;26.20;;
22334;SDS011;11335;43.848;25.958;2023-02-28T17:01:00;50.35;;;26.83;;
22334;SDS011;11335;43.848;25.958;2023-02-28T17:03:46;49.58;;;26.63;;
22334;SDS011;11335;43.848;25.958;2023-02-28T17:06:32;49.78;;;26.95;;
22334;SDS011;11335;43.848;25.958;2023-02-28T17:09:19;52.67;;;29.20;;
22334;SDS011;11335;43.848;25.958;2023-02-28T17:12:05;60.60;;;32.15;;
22334;SDS011;11335;43.848;25.958;2023-02-28T17:14:51;53.30;;;28.10;;
22334;SDS011;11335;43.848;25.958;2023-02-28T17:17:37;50.03;;;27.50;;
22334;SDS011;11335;43.848;25.958;2023-02-28T17:20:23;50.03;;;28.90;;
22334;SDS011;11335;43.848;25.958;2023-02-28T17:23:08;51.38;;;28.67;;
22334;SDS011;11335;43.848;25.958;2023-02-28T17:25:54;51.60;;;28.02;;
22334;SDS011;11335;43.848;25.958;2023-02-28T17:28:40;57.60;;;28.73;;
22334;SDS011;11335;43.848;25.958;2023-02-28T17:31:26;53.00;;;30.05;;
22334;SDS011;11335;43.848;25.958;2023-02-28T17:34:12;50.47;;;27.70;;
22334;SDS011;11335;43.848;25.958;2023-02-28T17:37:03;55.20;;;29.10;;
22334;SDS011;11335;43.848;25.958;2023-02-28T17:39:49;55.78;;;29.33;;
22334;SDS011;11335;43.848;25.958;2023-02-28T17:42:34;54.55;;;29.45;;
22334;SDS011;11335;43.848;25.958;2023-02-28T17:45:20;53.50;;;28.17;;
22334;SDS011;11335;43.848;25.958;2023-02-28T17:48:06;63.80;;;35.17;;
22334;SDS011;11335;43.848;25.958;2023-02-28T17:50:51;56.20;;;31.02;;
22334;SDS011;11335;43.848;25.958;2023-02-28T17:53:37;52.13;;;28.30;;
22334;SDS011;11335;43.848;25.958;2023-02-28T17:56:23;58.08;;;31.52;;
22334;SDS011;11335;43.848;25.958;2023-02-28T17:59:09;59.95;;;32.92;;
22334;SDS011;11335;43.848;25.958;2023-02-28T18:01:55;49.83;;;28.73;;
22334;SDS011;11335;43.848;25.958;2023-02-28T18:04:41;63.00;;;36.78;;
22334;SDS011;11335;43.848;25.958;2023-02-28T18:07:26;51.60;;;28.02;;
22334;SDS011;11335;43.848;25.958;2023-02-28T18:10:14;55.10;;;28.00;;
22334;SDS011;11335;43.848;25.958;2023-02-28T18:13:01;51.00;;;27.85;;
22334;SDS011;11335;43.848;25.958;2023-02-28T18:15:48;53.05;;;27.95;;
22334;SDS011;11335;43.848;25.958;2023-02-28T18:18:34;57.65;;;30.67;;
22334;SDS011;11335;43.848;25.958;2023-02-28T18:21:22;52.28;;;28.15;;
22334;SDS011;11335;43.848;25.958;2023-02-28T18:24:08;54.30;;;28.98;;
22334;SDS011;11335;43.848;25.958;2023-02-28T18:26:56;56.15;;;29.10;;
22334;SDS011;11335;43.848;25.958;2023-02-28T18:29:42;57.22;;;28.10;;
22334;SDS011;11335;43.848;25.958;2023-02-28T18:32:28;55.03;;;28.75;;
22334;SDS011;11335;43.848;25.958;2023-02-28T18:35:13;74.95;;;38.53;;